Time;durP1;ratioP1;P1;durP2;ratioP2;P2;SDS_P1;SDS_P2;PMS_P1;PMS_P2;Temp;Humidity;BMP_temperature;BMP_pressure;BME280_temperature;BME280_humidity;BME280_pressure;Samples;Min_cycle;Max_cycle;Signal;HPM_P1;HPM_P2
2023/03/24 00:01:50;;;;;;;7.13;5.95;;;9.20;99.90;;;;;;5028859;28;20116;-56
2023/03/24 00:04:16;;;;;;;8.30;6.97;;;9.20;99.90;;;;;;5022134;28;20113;-56
2023/03/24 00:06:42;;;;;;;9.75;6.20;;;9.20;99.90;;;;;;5029321;28;20452;-54
2023/03/24 00:09:08;;;;;;;10.70;6.03;;;9.20;99.90;;;;;;5024633;28;20022;-55
2023/03/24 00:11:34;;;;;;;8.98;6.05;;;9.30;99.90;;;;;;5020942;28;20026;-54
2023/03/24 00:14:01;;;;;;;8.65;5.80;;;9.30;99.90;;;;;;5027334;28;20100;-55
2023/03/24 00:16:27;;;;;;;9.93;6.15;;;9.30;99.90;;;;;;5019901;28;20057;-54
2023/03/24 00:18:53;;;;;;;7.80;5.60;;;9.30;99.90;;;;;;5029106;28;20755;-54
2023/03/24 00:21:23;;;;;;;7.78;5.63;;;9.30;99.90;;;;;;5021698;28;20030;-54
2023/03/24 00:23:50;;;;;;;5.93;5.07;;;9.40;99.90;;;;;;5029692;28;20462;-55
2023/03/24 00:26:16;;;;;;;6.18;5.57;;;9.40;99.90;;;;;;5023670;28;20025;-54
2023/03/24 00:28:44;;;;;;;7.70;5.03;;;9.40;99.90;;;;;;5021600;28;20034;-57
2023/03/24 00:31:13;;;;;;;8.10;5.38;;;9.40;99.90;;;;;;5025255;28;20026;-54
2023/03/24 00:33:40;;;;;;;6.88;5.13;;;9.40;99.90;;;;;;5022248;28;20167;-57
2023/03/24 00:36:10;;;;;;;9.38;4.35;;;9.40;99.90;;;;;;5025867;28;20480;-56
2023/03/24 00:38:37;;;;;;;6.63;4.43;;;9.40;99.90;;;;;;5022626;28;20018;-54
2023/03/24 00:41:05;;;;;;;6.22;4.55;;;9.40;99.90;;;;;;5029822;28;20028;-52
2023/03/24 00:43:31;;;;;;;8.68;4.90;;;9.40;99.90;;;;;;5007400;28;20041;-53
2023/03/24 00:46:02;;;;;;;5.18;3.92;;;9.40;99.90;;;;;;5026041;28;20076;-57
2023/03/24 00:48:29;;;;;;;8.20;3.95;;;9.40;99.90;;;;;;5023397;28;20017;-55
2023/03/24 00:50:55;;;;;;;6.50;5.07;;;9.40;99.90;;;;;;5027207;28;20064;-53
2023/03/24 00:53:22;;;;;;;7.47;4.13;;;9.40;99.90;;;;;;5024581;28;20021;-56
2023/03/24 00:55:48;;;;;;;5.90;3.83;;;9.40;99.90;;;;;;5019798;28;20021;-55
2023/03/24 00:58:22;;;;;;;5.15;4.05;;;9.50;99.90;;;;;;5018843;28;20029;-56
2023/03/24 01:00:56;;;;;;;6.63;3.67;;;9.40;99.90;;;;;;5020189;28;20064;-58
2023/03/24 01:03:26;;;;;;;6.05;3.67;;;9.50;99.90;;;;;;5026072;28;20056;-55
2023/03/24 01:05:56;;;;;;;7.07;3.72;;;9.50;99.90;;;;;;5019652;28;20032;-57
2023/03/24 01:08:24;;;;;;;9.60;4.13;;;9.50;99.90;;;;;;5026528;28;20017;-59
2023/03/24 01:10:51;;;;;;;6.60;3.53;;;9.50;99.90;;;;;;5020790;28;20096;-59
2023/03/24 01:13:22;;;;;;;6.78;3.63;;;9.50;99.90;;;;;;5022569;28;20057;-57
2023/03/24 01:15:48;;;;;;;5.40;3.17;;;9.60;99.90;;;;;;5022428;28;20112;-59
2023/03/24 01:18:15;;;;;;;5.28;3.50;;;9.60;99.90;;;;;;5023727;28;20447;-54
2023/03/24 01:20:47;;;;;;;6.35;3.42;;;9.60;99.90;;;;;;5010354;28;20113;-60
2023/03/24 01:23:16;;;;;;;3.85;2.80;;;9.60;99.90;;;;;;5009991;28;20026;-59
2023/03/24 01:25:44;;;;;;;9.13;3.08;;;9.60;99.90;;;;;;5012647;28;20113;-59
2023/03/24 01:28:11;;;;;;;5.63;3.67;;;9.60;99.90;;;;;;5018388;28;20508;-59
2023/03/24 01:30:38;;;;;;;4.25;2.95;;;9.60;99.90;;;;;;5024936;28;20060;-55
2023/03/24 01:33:04;;;;;;;4.57;3.13;;;9.60;99.90;;;;;;5020831;28;20389;-60
2023/03/24 01:35:30;;;;;;;5.18;3.40;;;9.60;99.90;;;;;;5023914;28;20452;-57
2023/03/24 01:37:57;;;;;;;6.22;3.95;;;9.60;99.90;;;;;;5023379;28;20104;-60
2023/03/24 01:40:28;;;;;;;4.72;3.15;;;9.60;99.90;;;;;;5025107;28;20025;-60
2023/03/24 01:42:55;;;;;;;5.15;3.63;;;9.60;99.90;;;;;;5004136;28;20048;-61
2023/03/24 01:45:54;;;;;;;4.70;3.30;;;9.60;99.90;;;;;;5024103;28;20026;-58
2023/03/24 01:48:25;;;;;;;3.30;2.90;;;9.60;99.90;;;;;;5014879;28;20025;-61
2023/03/24 01:51:00;;;;;;;4.28;3.10;;;9.60;99.90;;;;;;5025810;28;20013;-61
2023/03/24 01:53:27;;;;;;;4.57;3.27;;;9.50;99.90;;;;;;5023951;28;20219;-61
2023/03/24 01:55:54;;;;;;;4.25;2.88;;;9.60;99.90;;;;;;5009300;28;20021;-58
2023/03/24 01:58:20;;;;;;;3.38;2.80;;;9.60;99.90;;;;;;5011921;28;20021;-59
2023/03/24 02:00:46;;;;;;;6.38;3.00;;;9.60;99.90;;;;;;5019842;28;20068;-59
2023/03/24 02:03:16;;;;;;;4.75;2.90;;;9.60;99.90;;;;;;5022214;28;20063;-60
2023/03/24 02:05:45;;;;;;;4.25;3.25;;;9.50;99.90;;;;;;5013854;28;20069;-60
2023/03/24 02:08:51;;;;;;;4.35;3.10;;;9.60;99.90;;;;;;5024330;28;20496;-60
2023/03/24 02:11:17;;;;;;;5.22;3.03;;;9.60;99.90;;;;;;4972361;28;20037;-60
2023/03/24 02:13:43;;;;;;;7.03;2.85;;;9.60;99.90;;;;;;5023839;28;20120;-58
2023/03/24 02:16:18;;;;;;;5.97;3.13;;;9.50;99.90;;;;;;5022355;28;20113;-61
2023/03/24 02:18:55;;;;;;;3.92;3.08;;;9.50;99.90;;;;;;5025577;28;20523;-59
2023/03/24 02:21:20;;;;;;;;;;;9.50;99.90;;;;;;5024200;28;20030;-58
2023/03/24 02:23:53;;;;;;;6.70;3.63;;;9.60;99.90;;;;;;5019231;28;19913;-57
2023/03/24 02:26:48;;;;;;;6.32;2.85;;;9.60;99.90;;;;;;5024626;28;20017;-60
2023/03/24 02:29:54;;;;;;;3.67;2.97;;;9.50;99.90;;;;;;5010947;28;20014;-59
2023/03/24 02:32:20;;;;;;;4.85;3.30;;;9.60;99.90;;;;;;5018598;28;20022;-60
2023/03/24 02:35:20;;;;;;;7.82;3.67;;;9.60;99.90;;;;;;5020111;28;20032;-60
2023/03/24 02:37:58;;;;;;;5.88;3.10;;;9.60;99.90;;;;;;5023023;28;20372;-60
2023/03/24 02:40:51;;;;;;;6.68;3.13;;;9.60;99.90;;;;;;5020083;28;20036;-60
2023/03/24 02:43:42;;;;;;;5.90;3.00;;;9.50;99.90;;;;;;5015398;28;20017;-57
2023/03/24 02:46:17;;;;;;;5.22;3.50;;;9.50;99.90;;;;;;5016188;28;20112;-60
2023/03/24 02:49:02;;;;;;;7.97;4.35;;;9.60;99.90;;;;;;5022000;28;20030;-61
2023/03/24 02:51:46;;;;;;;5.55;3.00;;;9.60;99.90;;;;;;5014845;28;20022;-59
2023/03/24 02:54:37;;;;;;;6.40;3.38;;;9.60;99.90;;;;;;5023858;28;20340;-58
2023/03/24 02:57:13;;;;;;;4.80;3.10;;;9.60;99.90;;;;;;5005133;28;20521;-56
2023/03/24 02:59:47;;;;;;;6.00;3.60;;;9.60;99.90;;;;;;5022892;28;20500;-60
2023/03/24 03:02:16;;;;;;;5.95;3.58;;;9.60;99.90;;;;;;5021676;28;20496;-59
2023/03/24 03:04:55;;;;;;;7.38;3.88;;;9.60;99.90;;;;;;5024506;28;20101;-58
2023/03/24 03:07:25;;;;;;;4.15;2.95;;;9.60;99.90;;;;;;5022718;28;20113;-59
2023/03/24 03:10:02;;;;;;;8.73;3.92;;;9.60;99.90;;;;;;5017221;28;20089;-59
2023/03/24 03:12:31;;;;;;;3.25;2.97;;;9.60;99.90;;;;;;5024372;28;20053;-58
2023/03/24 03:15:11;;;;;;;7.07;3.78;;;9.60;99.90;;;;;;5020705;28;20076;-59
2023/03/24 03:18:04;;;;;;;8.05;4.22;;;9.60;99.90;;;;;;5025107;28;20042;-61
2023/03/24 03:20:36;;;;;;;7.00;3.22;;;9.60;99.90;;;;;;5014627;28;20017;-59
2023/03/24 03:23:12;;;;;;;6.63;3.35;;;9.60;99.90;;;;;;5024985;28;20040;-58
2023/03/24 03:25:49;;;;;;;6.38;3.85;;;9.60;99.90;;;;;;5018310;28;20022;-57
2023/03/24 03:28:21;;;;;;;4.72;3.28;;;9.60;99.90;;;;;;5025108;28;20554;-58
2023/03/24 03:30:53;;;;;;;4.95;3.45;;;9.60;99.90;;;;;;5020757;28;20040;-58
2023/03/24 03:33:24;;;;;;;5.65;3.53;;;9.60;99.90;;;;;;5026550;28;20649;-58
2023/03/24 03:35:56;;;;;;;4.20;2.92;;;9.60;99.90;;;;;;5022517;28;20029;-59
2023/03/24 03:38:38;;;;;;;4.57;3.28;;;9.60;99.90;;;;;;5022589;28;20021;-58
2023/03/24 03:41:05;;;;;;;6.13;3.38;;;9.50;99.90;;;;;;5008363;28;20447;-58
2023/03/24 03:43:32;;;;;;;5.28;3.63;;;9.60;99.90;;;;;;5023430;28;20484;-57
2023/03/24 03:45:59;;;;;;;7.72;3.78;;;9.60;99.90;;;;;;5027518;28;20037;-60
2023/03/24 03:48:25;;;;;;;5.93;3.35;;;9.60;99.90;;;;;;5024441;28;20104;-59
2023/03/24 03:50:53;;;;;;;4.10;3.47;;;9.60;99.90;;;;;;5020278;28;20549;-59
2023/03/24 03:53:22;;;;;;;6.32;3.80;;;9.60;99.90;;;;;;5026394;28;20376;-58
2023/03/24 03:55:48;;;;;;;5.65;3.15;;;9.50;99.90;;;;;;5021809;28;20112;-60
2023/03/24 03:58:14;;;;;;;5.47;3.33;;;9.60;99.90;;;;;;5026836;28;20100;-61
2023/03/24 04:00:43;;;;;;;5.45;3.38;;;9.60;99.90;;;;;;5022765;28;20072;-58
2023/03/24 04:03:25;;;;;;;4.38;3.70;;;9.60;99.90;;;;;;5027590;28;20068;-60
2023/03/24 04:06:03;;;;;;;5.13;3.88;;;9.60;99.90;;;;;;5020345;28;20100;-56
2023/03/24 04:08:50;;;;;;;3.80;3.40;;;9.70;99.90;;;;;;5026488;28;20065;-57
2023/03/24 04:11:37;;;;;;;5.05;3.88;;;9.70;99.90;;;;;;5027714;28;20047;-58
2023/03/24 04:14:11;;;;;;;5.22;4.18;;;9.70;99.90;;;;;;5033795;28;20522;-57
2023/03/24 04:16:58;;;;;;;4.00;3.42;;;9.70;99.90;;;;;;5027315;28;20570;-60
2023/03/24 04:20:04;;;;;;;5.70;4.03;;;9.70;99.90;;;;;;5025308;28;20025;-56
2023/03/24 04:22:37;;;;;;;5.05;3.42;;;9.80;99.90;;;;;;5021919;28;20064;-59
2023/03/24 04:25:02;;;;;;;7.18;3.95;;;9.80;99.90;;;;;;5021538;28;20105;-59
2023/03/24 04:27:46;;;;;;;4.20;3.70;;;9.80;99.90;;;;;;5026582;28;20128;-57
2023/03/24 04:30:42;;;;;;;5.88;3.72;;;9.80;99.90;;;;;;5020121;28;20124;-57
2023/03/24 04:33:37;;;;;;;4.45;3.83;;;9.90;99.90;;;;;;5018723;28;20026;-60
2023/03/24 04:36:18;;;;;;;6.13;3.90;;;9.90;99.90;;;;;;5018518;28;20479;-58
2023/03/24 04:38:52;;;;;;;5.57;3.75;;;10.00;99.90;;;;;;5021043;28;20061;-58
2023/03/24 04:41:19;;;;;;;5.07;4.00;;;10.10;99.90;;;;;;5017961;28;20030;-57
2023/03/24 04:43:47;;;;;;;3.97;3.58;;;10.10;99.90;;;;;;5019806;28;20541;-60
2023/03/24 04:46:16;;;;;;;8.50;4.07;;;10.10;99.90;;;;;;5026338;28;20041;-56
2023/03/24 04:48:43;;;;;;;5.63;4.13;;;10.10;99.90;;;;;;5022996;28;20021;-59
2023/03/24 04:51:10;;;;;;;5.72;4.00;;;10.10;99.90;;;;;;5026415;28;20048;-60
2023/03/24 04:53:35;;;;;;;5.45;3.92;;;10.10;99.90;;;;;;5024387;28;20061;-59
2023/03/24 04:56:28;;;;;;;3.67;3.38;;;10.20;99.90;;;;;;5021439;28;20049;-56
2023/03/24 04:58:55;;;;;;;4.47;3.33;;;10.20;99.90;;;;;;5014825;28;20017;-59
2023/03/24 05:01:21;;;;;;;4.13;3.40;;;10.20;99.90;;;;;;5024644;28;20026;-58
2023/03/24 05:03:47;;;;;;;3.38;3.08;;;10.30;99.90;;;;;;5024397;28;20539;-58
2023/03/24 05:06:13;;;;;;;4.30;3.38;;;10.30;99.90;;;;;;5021953;28;20045;-59
2023/03/24 05:08:39;;;;;;;6.72;3.33;;;10.30;99.90;;;;;;5021247;28;20499;-59
2023/03/24 05:11:05;;;;;;;4.22;3.70;;;10.30;99.90;;;;;;5027927;28;20111;-57
2023/03/24 05:13:30;;;;;;;4.07;3.65;;;10.30;99.90;;;;;;5020879;28;20582;-60
2023/03/24 05:15:57;;;;;;;3.47;3.17;;;10.30;99.90;;;;;;5029126;28;20573;-60
2023/03/24 05:18:22;;;;;;;4.60;4.10;;;10.30;99.90;;;;;;5022140;28;20029;-60
2023/03/24 05:20:48;;;;;;;4.65;3.78;;;10.40;99.90;;;;;;5021923;28;20021;-59
2023/03/24 05:23:14;;;;;;;6.07;4.03;;;10.40;99.90;;;;;;5025288;28;20025;-57
2023/03/24 05:25:39;;;;;;;4.90;4.40;;;10.40;99.90;;;;;;5021183;28;20022;-58
2023/03/24 05:28:05;;;;;;;5.25;3.65;;;10.40;99.90;;;;;;5028330;28;20045;-55
2023/03/24 05:30:31;;;;;;;6.13;4.10;;;10.40;99.90;;;;;;5018500;28;20041;-56
2023/03/24 05:32:56;;;;;;;5.75;4.40;;;10.40;99.90;;;;;;5029223;28;20144;-58
2023/03/24 05:35:23;;;;;;;7.25;4.05;;;10.40;99.90;;;;;;5021957;28;20028;-58
2023/03/24 05:37:49;;;;;;;6.35;4.20;;;10.50;99.90;;;;;;5016422;28;20017;-57
2023/03/24 05:40:15;;;;;;;4.88;3.80;;;10.50;99.90;;;;;;5013872;28;20029;-59
2023/03/24 05:42:41;;;;;;;6.30;4.70;;;10.50;99.90;;;;;;5010777;28;20038;-58
2023/03/24 05:45:07;;;;;;;4.63;4.22;;;10.50;99.90;;;;;;5008907;28;20060;-57
2023/03/24 05:47:33;;;;;;;4.55;3.95;;;10.50;99.90;;;;;;5015486;28;20092;-60
2023/03/24 05:49:59;;;;;;;5.82;4.40;;;10.50;99.90;;;;;;5027498;28;20021;-56
2023/03/24 05:52:25;;;;;;;7.70;3.90;;;10.60;99.90;;;;;;5020563;28;20054;-59
2023/03/24 05:54:51;;;;;;;4.03;3.60;;;10.60;99.90;;;;;;5021670;28;20009;-60
2023/03/24 05:57:18;;;;;;;4.38;3.65;;;10.60;99.90;;;;;;5024230;28;20416;-58
2023/03/24 05:59:44;;;;;;;5.13;3.95;;;10.60;99.90;;;;;;5016561;28;20030;-57
2023/03/24 06:02:10;;;;;;;4.05;3.67;;;10.70;99.90;;;;;;5025169;28;20049;-59
2023/03/24 06:04:36;;;;;;;4.50;3.92;;;10.60;99.90;;;;;;5020652;28;20096;-58
2023/03/24 06:07:03;;;;;;;4.43;4.03;;;10.70;99.90;;;;;;5024632;28;20036;-57
2023/03/24 06:09:34;;;;;;;4.35;3.90;;;10.70;99.90;;;;;;5020185;28;20033;-57
2023/03/24 06:12:01;;;;;;;4.70;3.90;;;10.70;99.90;;;;;;5024038;28;20121;-59
2023/03/24 06:14:26;;;;;;;4.50;4.00;;;10.70;99.90;;;;;;5022561;28;20052;-56
2023/03/24 06:16:52;;;;;;;4.93;3.67;;;10.70;99.90;;;;;;5021711;28;20030;-60
2023/03/24 06:19:21;;;;;;;4.72;4.00;;;10.70;99.90;;;;;;5018711;28;20029;-60
2023/03/24 06:21:49;;;;;;;4.95;4.13;;;10.70;99.90;;;;;;5018977;28;20504;-60
2023/03/24 06:24:16;;;;;;;4.70;3.50;;;10.80;99.90;;;;;;5022880;28;20029;-58
2023/03/24 06:26:43;;;;;;;4.15;3.30;;;10.70;99.90;;;;;;5020944;28;20022;-56
2023/03/24 06:29:09;;;;;;;4.20;3.80;;;10.80;99.90;;;;;;5024918;28;20018;-59
2023/03/24 06:31:36;;;;;;;5.38;4.03;;;10.80;99.90;;;;;;5009070;28;20045;-60
2023/03/24 06:34:05;;;;;;;4.43;3.58;;;10.90;99.90;;;;;;4993310;28;20034;-56
2023/03/24 06:36:33;;;;;;;5.07;3.47;;;10.90;99.90;;;;;;4993108;28;20038;-57
2023/03/24 06:38:59;;;;;;;3.75;3.35;;;10.90;99.90;;;;;;4989673;28;20014;-59
2023/03/24 06:41:25;;;;;;;3.65;3.33;;;10.90;99.90;;;;;;4987944;28;20513;-58
2023/03/24 06:43:50;;;;;;;4.45;2.83;;;10.90;99.90;;;;;;4989059;28;20022;-60
2023/03/24 06:46:16;;;;;;;3.53;3.10;;;10.90;99.90;;;;;;4986019;28;20035;-59
2023/03/24 06:48:41;;;;;;;3.20;2.90;;;10.90;99.90;;;;;;4986360;28;20102;-55
2023/03/24 06:51:07;;;;;;;3.40;3.10;;;10.90;99.90;;;;;;4986889;28;20049;-59
2023/03/24 06:53:33;;;;;;;3.38;2.95;;;10.90;99.90;;;;;;4991652;28;20401;-59
2023/03/24 06:55:58;;;;;;;3.20;2.90;;;11.00;99.90;;;;;;4986947;28;20469;-58
2023/03/24 06:58:24;;;;;;;3.20;2.90;;;10.90;99.90;;;;;;4988968;28;20026;-60
2023/03/24 07:00:49;;;;;;;3.05;2.85;;;11.00;99.90;;;;;;4992283;28;20420;-60
2023/03/24 07:03:15;;;;;;;3.03;2.80;;;11.00;99.90;;;;;;4986312;28;20026;-59
2023/03/24 07:05:43;;;;;;;3.22;2.95;;;11.10;99.90;;;;;;4987457;28;20282;-58
2023/03/24 07:08:13;;;;;;;4.05;3.00;;;11.10;99.90;;;;;;4987579;28;20026;-58
2023/03/24 07:10:39;;;;;;;3.55;2.92;;;11.10;99.90;;;;;;4988982;28;20585;-58
2023/03/24 07:13:05;;;;;;;3.83;2.50;;;11.10;99.90;;;;;;4992508;28;20022;-58
2023/03/24 07:15:31;;;;;;;2.97;2.53;;;11.10;99.90;;;;;;4992259;28;20046;-59
2023/03/24 07:17:57;;;;;;;2.67;2.47;;;11.10;99.90;;;;;;4995235;28;20099;-55
2023/03/24 07:20:23;;;;;;;2.53;2.33;;;11.10;99.90;;;;;;4991487;28;20026;-56
2023/03/24 07:22:48;;;;;;;2.53;2.42;;;11.10;99.90;;;;;;4991810;28;20073;-58
2023/03/24 07:25:18;;;;;;;3.33;2.75;;;11.10;99.90;;;;;;4992167;28;20053;-61
2023/03/24 07:27:45;;;;;;;2.00;1.90;;;11.10;99.90;;;;;;4990883;28;20024;-58
2023/03/24 07:30:11;;;;;;;1.85;1.50;;;11.10;99.90;;;;;;4990754;28;20065;-58
2023/03/24 07:32:41;;;;;;;4.15;2.15;;;11.00;99.90;;;;;;4991880;28;20261;-58
2023/03/24 07:35:09;;;;;;;2.05;1.70;;;11.00;99.90;;;;;;4997520;28;20283;-60
2023/03/24 07:37:35;;;;;;;1.77;1.60;;;11.10;99.90;;;;;;4993955;28;20022;-57
2023/03/24 07:40:04;;;;;;;2.45;1.45;;;11.10;99.90;;;;;;4990242;28;20026;-60
2023/03/24 07:42:30;;;;;;;3.30;1.42;;;11.10;99.90;;;;;;4990279;28;20019;-59
2023/03/24 07:44:55;;;;;;;3.03;1.50;;;11.10;99.90;;;;;;4991476;28;20084;-58
2023/03/24 07:47:21;;;;;;;2.15;1.23;;;11.10;99.90;;;;;;4990139;28;20106;-52
2023/03/24 07:49:46;;;;;;;2.83;1.10;;;11.10;99.90;;;;;;4990571;28;20109;-60
2023/03/24 07:52:12;;;;;;;1.63;0.80;;;11.10;99.90;;;;;;4992517;28;20022;-60
2023/03/24 07:54:38;;;;;;;1.92;1.40;;;11.10;99.90;;;;;;4990398;28;20034;-57
2023/03/24 07:57:03;;;;;;;2.78;1.23;;;11.10;99.90;;;;;;4994002;28;20030;-54
2023/03/24 07:59:29;;;;;;;4.28;1.45;;;11.10;99.90;;;;;;4989037;28;20671;-58
2023/03/24 08:01:54;;;;;;;1.83;0.90;;;11.20;99.90;;;;;;4991488;28;20079;-56
2023/03/24 08:04:20;;;;;;;4.05;1.08;;;11.20;99.90;;;;;;4990898;28;20115;-58
2023/03/24 08:06:46;;;;;;;3.25;1.23;;;11.20;99.90;;;;;;4990295;28;20113;-57
2023/03/24 08:09:12;;;;;;;4.57;1.33;;;11.20;99.90;;;;;;4991226;28;20480;-59
2023/03/24 08:11:38;;;;;;;2.15;1.33;;;11.20;99.90;;;;;;4990301;28;20038;-59
2023/03/24 08:14:04;;;;;;;2.65;1.00;;;11.30;99.90;;;;;;4991415;28;20447;-60
2023/03/24 08:16:29;;;;;;;6.68;1.80;;;11.40;99.90;;;;;;4991695;28;20030;-59
2023/03/24 08:18:58;;;;;;;4.10;1.60;;;11.60;99.90;;;;;;4991617;28;20109;-59
2023/03/24 08:21:24;;;;;;;7.57;1.88;;;11.70;99.90;;;;;;4994449;28;20537;-57
2023/03/24 08:23:50;;;;;;;4.05;1.30;;;11.70;99.90;;;;;;4989221;28;20508;-56
2023/03/24 08:26:16;;;;;;;5.60;1.55;;;11.80;99.90;;;;;;4989598;28;20022;-59
2023/03/24 08:28:42;;;;;;;6.25;1.20;;;11.80;99.90;;;;;;4998239;28;20022;-55
2023/03/24 08:31:07;;;;;;;3.03;1.20;;;11.80;99.90;;;;;;5009901;28;20077;-56
2023/03/24 08:33:34;;;;;;;9.05;2.30;;;11.80;99.90;;;;;;5017704;28;20397;-53
2023/03/24 08:35:59;;;;;;;5.03;1.88;;;11.90;99.90;;;;;;5012411;28;20025;-55
2023/03/24 08:38:29;;;;;;;5.63;1.88;;;12.00;99.90;;;;;;4992877;28;20031;-54
2023/03/24 08:41:00;;;;;;;6.03;1.63;;;12.00;99.90;;;;;;4989356;28;20023;-54
2023/03/24 08:43:30;;;;;;;5.63;1.42;;;12.00;99.90;;;;;;4992003;28;20393;-58
2023/03/24 08:45:57;;;;;;;6.43;1.52;;;11.90;99.90;;;;;;5007098;28;20048;-56
2023/03/24 08:48:23;;;;;;;5.15;1.42;;;11.80;99.90;;;;;;4992831;28;20019;-58
2023/03/24 08:50:49;;;;;;;5.78;1.77;;;11.80;99.90;;;;;;4992848;28;20018;-59
2023/03/24 08:53:15;;;;;;;4.07;1.25;;;11.80;99.90;;;;;;4989281;28;20104;-61
2023/03/24 08:55:42;;;;;;;3.65;1.27;;;11.80;99.90;;;;;;4989831;28;20393;-59
2023/03/24 08:58:19;;;;;;;3.83;1.48;;;11.90;99.90;;;;;;4993080;28;20034;-58
2023/03/24 09:00:46;;;;;;;4.38;1.92;;;12.00;99.90;;;;;;4989886;28;20030;-59
2023/03/24 09:03:16;;;;;;;8.85;1.80;;;12.00;99.90;;;;;;4993648;28;20467;-58
2023/03/24 09:05:45;;;;;;;4.63;1.77;;;11.90;99.90;;;;;;4989044;28;20735;-59
2023/03/24 09:08:13;;;;;;;4.97;1.50;;;11.80;99.90;;;;;;4989692;28;20146;-60
2023/03/24 09:10:39;;;;;;;8.88;2.15;;;11.80;99.90;;;;;;4995783;28;20030;-56
2023/03/24 09:13:05;;;;;;;5.97;1.80;;;11.70;99.90;;;;;;4988572;28;20034;-59
2023/03/24 09:15:32;;;;;;;6.13;1.52;;;11.60;99.90;;;;;;4987531;28;20157;-56
2023/03/24 09:17:58;;;;;;;7.38;1.77;;;11.50;99.90;;;;;;4987996;28;20121;-59
2023/03/24 09:20:23;;;;;;;2.63;1.30;;;11.50;99.90;;;;;;4988884;28;20117;-55
2023/03/24 09:22:49;;;;;;;4.38;1.73;;;11.40;99.90;;;;;;4987849;28;20067;-58
2023/03/24 09:25:18;;;;;;;4.50;1.25;;;11.40;99.90;;;;;;4990680;28;20019;-53
2023/03/24 09:27:44;;;;;;;10.77;2.42;;;11.40;99.90;;;;;;4988655;28;20062;-59
2023/03/24 09:30:12;;;;;;;4.80;1.40;;;11.40;99.90;;;;;;4987059;28;20026;-59
2023/03/24 09:32:37;;;;;;;7.47;2.25;;;11.40;99.90;;;;;;4994926;28;20093;-59
2023/03/24 09:35:04;;;;;;;3.58;1.60;;;11.40;99.90;;;;;;4987496;28;20050;-54
2023/03/24 09:37:31;;;;;;;3.65;1.00;;;11.50;99.90;;;;;;5001097;28;20022;-57
2023/03/24 09:39:58;;;;;;;5.65;1.35;;;11.50;99.90;;;;;;4989361;28;20047;-59
2023/03/24 09:42:29;;;;;;;3.92;1.38;;;11.50;99.90;;;;;;4992086;28;20121;-59
2023/03/24 09:44:57;;;;;;;5.20;1.77;;;11.60;99.90;;;;;;4990636;28;20025;-57
2023/03/24 09:47:33;;;;;;;8.00;1.70;;;11.70;99.90;;;;;;4991485;28;20588;-59
2023/03/24 09:50:16;;;;;;;3.83;1.23;;;11.70;99.90;;;;;;4991096;28;20049;-53
2023/03/24 09:52:46;;;;;;;5.60;1.52;;;11.50;99.90;;;;;;4995016;28;20126;-57
2023/03/24 09:55:18;;;;;;;4.13;1.58;;;11.40;99.90;;;;;;4989062;28;20485;-55
2023/03/24 09:57:47;;;;;;;7.50;2.40;;;11.50;99.90;;;;;;4988046;28;20029;-54
2023/03/24 10:00:25;;;;;;;6.65;2.13;;;11.60;99.90;;;;;;4993871;28;20077;-57
2023/03/24 10:02:51;;;;;;;5.18;1.67;;;11.60;99.90;;;;;;4994562;28;20023;-54
2023/03/24 10:05:33;;;;;;;6.43;1.60;;;11.60;99.90;;;;;;4993888;28;20018;-60
2023/03/24 10:08:01;;;;;;;6.95;1.58;;;11.70;99.90;;;;;;4997423;28;20017;-60
2023/03/24 10:10:51;;;;;;;5.65;1.65;;;11.70;99.90;;;;;;5008260;28;20112;-60
2023/03/24 10:13:32;;;;;;;6.32;1.45;;;11.70;99.90;;;;;;5018908;28;20181;-53
2023/03/24 10:16:06;;;;;;;2.38;1.15;;;11.70;99.90;;;;;;5006841;28;20037;-55
2023/03/24 10:18:44;;;;;;;3.90;1.20;;;11.80;99.90;;;;;;5015069;28;20065;-57
2023/03/24 10:21:21;;;;;;;4.32;1.65;;;11.80;99.90;;;;;;5012921;28;20057;-55
2023/03/24 10:24:07;;;;;;;2.92;1.50;;;11.70;99.90;;;;;;5019686;28;20026;-54
2023/03/24 10:26:47;;;;;;;7.43;1.30;;;11.70;99.90;;;;;;5018241;28;20392;-57
2023/03/24 10:29:28;;;;;;;7.97;1.67;;;11.90;99.90;;;;;;5027670;28;20025;-56
2023/03/24 10:32:03;;;;;;;4.55;1.17;;;12.00;99.90;;;;;;5015457;28;20032;-60
2023/03/24 10:34:31;;;;;;;4.63;1.13;;;12.00;99.90;;;;;;5019932;28;20033;-54
2023/03/24 10:37:00;;;;;;;4.88;1.30;;;12.00;99.90;;;;;;5018043;28;20034;-56
2023/03/24 10:39:27;;;;;;;4.25;1.65;;;12.10;99.90;;;;;;5008708;28;20104;-55
2023/03/24 10:41:53;;;;;;;6.60;1.30;;;12.10;99.90;;;;;;5020975;28;20088;-51
2023/03/24 10:44:20;;;;;;;5.35;1.70;;;12.10;99.90;;;;;;5019616;28;20496;-58
2023/03/24 10:46:52;;;;;;;9.60;2.13;;;12.20;99.90;;;;;;5026540;28;20022;-59
2023/03/24 10:49:20;;;;;;;4.82;0.90;;;12.30;99.90;;;;;;5028246;28;20108;-59
2023/03/24 10:51:51;;;;;;;5.57;1.67;;;12.20;99.90;;;;;;5022544;28;20019;-56
2023/03/24 10:54:22;;;;;;;6.95;1.77;;;12.30;99.90;;;;;;5027523;28;20087;-59
2023/03/24 10:56:49;;;;;;;3.47;1.83;;;12.30;99.90;;;;;;5007479;28;20116;-55
2023/03/24 10:59:19;;;;;;;9.35;2.10;;;12.40;99.90;;;;;;5021380;28;20026;-53
2023/03/24 11:01:45;;;;;;;4.93;1.70;;;12.30;99.90;;;;;;5020539;28;20040;-59
2023/03/24 11:04:15;;;;;;;3.50;1.02;;;12.20;99.90;;;;;;5024791;28;20025;-60
2023/03/24 11:07:16;;;;;;;6.80;1.75;;;12.10;99.90;;;;;;5027503;28;20281;-59
2023/03/24 11:09:44;;;;;;;4.95;1.20;;;12.10;99.90;;;;;;5017845;28;20017;-57
2023/03/24 11:12:25;;;;;;;8.00;1.33;;;12.00;99.90;;;;;;5025317;28;20029;-55
2023/03/24 11:14:52;;;;;;;4.80;1.67;;;12.00;99.90;;;;;;5022770;28;20022;-57
2023/03/24 11:17:20;;;;;;;5.28;1.83;;;11.90;99.90;;;;;;5020232;28;20026;-56
2023/03/24 11:19:51;;;;;;;3.47;1.45;;;12.10;99.90;;;;;;5015471;28;20033;-57
2023/03/24 11:22:18;;;;;;;6.95;1.60;;;12.30;99.90;;;;;;5021520;28;20030;-58
2023/03/24 11:24:49;;;;;;;6.40;1.88;;;12.40;99.90;;;;;;5024682;28;20106;-60
2023/03/24 11:27:17;;;;;;;3.75;1.00;;;12.60;99.90;;;;;;5021583;28;20144;-62
2023/03/24 11:29:44;;;;;;;6.53;0.95;;;12.90;99.90;;;;;;5024890;28;20092;-56
2023/03/24 11:32:13;;;;;;;5.93;1.42;;;13.10;99.90;;;;;;5022199;28;20083;-59
2023/03/24 11:34:45;;;;;;;6.13;1.75;;;13.30;99.90;;;;;;5025115;28;20030;-50
2023/03/24 11:37:21;;;;;;;4.95;1.40;;;13.40;99.90;;;;;;5024769;28;20021;-56
2023/03/24 11:40:15;;;;;;;5.22;1.42;;;13.40;99.90;;;;;;5027258;28;20495;-54
2023/03/24 11:42:45;;;;;;;5.13;1.13;;;13.50;99.90;;;;;;5024397;28;20411;-55
2023/03/24 11:45:22;;;;;;;3.80;1.58;;;13.60;99.90;;;;;;5027832;28;20026;-57
2023/03/24 11:47:50;;;;;;;6.88;1.27;;;13.80;99.90;;;;;;5023336;28;20108;-59
2023/03/24 11:50:20;;;;;;;5.20;1.65;;;14.00;99.90;;;;;;5024208;28;20010;-52
2023/03/24 11:52:48;;;;;;;9.02;1.88;;;14.10;99.90;;;;;;5026071;28;20026;-55
2023/03/24 11:55:24;;;;;;;9.85;1.33;;;14.30;99.90;;;;;;5019848;28;20018;-54
2023/03/24 11:57:50;;;;;;;;;;;14.30;99.90;;;;;;5025590;28;20531;-56
2023/03/24 12:00:30;;;;;;;4.77;1.77;;;14.40;99.90;;;;;;5025403;28;20012;-59
2023/03/24 12:03:22;;;;;;;4.18;1.45;;;14.40;99.90;;;;;;5016089;28;20503;-53
2023/03/24 12:06:05;;;;;;;6.72;1.33;;;14.40;99.90;;;;;;4998643;28;20079;-60
2023/03/24 12:08:52;;;;;;;6.95;1.40;;;14.30;99.90;;;;;;5023983;28;20092;-59
2023/03/24 12:11:38;;;;;;;5.85;1.30;;;14.20;99.90;;;;;;5028309;28;20025;-58
2023/03/24 12:14:04;;;;;;;;;;;14.20;99.90;;;;;;5014411;28;20507;-53
2023/03/24 12:16:44;;;;;;;7.28;1.75;;;14.10;99.90;;;;;;5025405;28;19912;-60
2023/03/24 12:19:17;;;;;;;4.30;2.25;;;13.90;99.90;;;;;;5020688;28;20124;-52
2023/03/24 12:22:15;;;;;;;10.35;1.52;;;13.80;99.90;;;;;;5026982;28;20408;-58
2023/03/24 12:24:53;;;;;;;7.38;1.55;;;13.80;99.90;;;;;;5021319;28;20026;-58
2023/03/24 12:27:46;;;;;;;9.57;2.67;;;13.90;99.90;;;;;;5015662;28;20148;-59
2023/03/24 12:30:34;;;;;;;8.90;2.05;;;14.00;99.90;;;;;;5018179;28;20032;-52
2023/03/24 12:33:18;;;;;;;6.70;1.75;;;13.90;99.90;;;;;;5013643;28;20037;-59
2023/03/24 12:35:51;;;;;;;5.43;1.65;;;13.70;99.90;;;;;;5012597;28;20405;-57
2023/03/24 12:38:20;;;;;;;5.57;1.45;;;13.60;99.90;;;;;;5024987;28;20078;-59
2023/03/24 12:41:05;;;;;;;6.60;2.15;;;13.50;99.90;;;;;;5021716;28;20129;-59
2023/03/24 12:44:08;;;;;;;5.15;1.25;;;13.40;99.90;;;;;;5026987;28;20021;-59
2023/03/24 12:47:07;;;;;;;6.82;2.08;;;13.20;99.90;;;;;;5017320;28;20042;-59
2023/03/24 12:49:48;;;;;;;9.07;1.67;;;13.00;99.90;;;;;;5019768;28;20013;-58
2023/03/24 12:52:33;;;;;;;6.45;2.03;;;12.80;99.90;;;;;;5024131;28;20013;-60
2023/03/24 12:55:11;;;;;;;7.10;1.48;;;12.80;99.90;;;;;;5017378;28;20105;-55
2023/03/24 12:57:43;;;;;;;7.28;1.80;;;12.90;99.90;;;;;;5023062;28;20033;-58
2023/03/24 13:00:17;;;;;;;5.68;1.92;;;12.90;99.90;;;;;;5024983;28;20013;-59
2023/03/24 13:03:05;;;;;;;4.93;1.27;;;12.80;99.90;;;;;;5020394;28;20032;-59
2023/03/24 13:05:36;;;;;;;4.88;1.23;;;12.90;99.90;;;;;;5017074;28;20021;-57
2023/03/24 13:08:10;;;;;;;6.93;1.90;;;13.20;99.90;;;;;;5014002;28;20030;-58
2023/03/24 13:10:39;;;;;;;4.47;1.48;;;13.30;99.90;;;;;;5019012;28;20087;-52
2023/03/24 13:13:07;;;;;;;7.13;1.80;;;13.50;99.90;;;;;;5014285;28;20049;-56